createdAt,value
2022-09-16T00:01:49.436Z,9.70
2022-09-16T00:06:52.420Z,8.60
2022-09-16T00:11:55.506Z,8.30
2022-09-16T00:16:58.555Z,8.00
2022-09-16T00:22:01.407Z,8.50
2022-09-16T00:27:04.477Z,8.40
2022-09-16T00:32:07.566Z,8.90
2022-09-16T00:37:10.515Z,8.50
2022-09-16T00:42:13.394Z,8.00
2022-09-16T00:47:23.637Z,7.10
2022-09-16T00:52:28.837Z,7.80
2022-09-16T00:57:31.799Z,8.10
2022-09-16T01:02:35.052Z,8.30
2022-09-16T01:07:43.949Z,8.50
2022-09-16T01:12:52.331Z,8.20
2022-09-16T01:17:57.963Z,8.10
2022-09-16T01:28:31.597Z,9.60
2022-09-16T01:33:44.796Z,9.50
2022-09-16T01:39:10.986Z,10.10
2022-09-16T01:44:27.068Z,9.50
2022-09-16T01:49:46.348Z,8.70
2022-09-16T01:54:56.669Z,8.90
2022-09-16T02:00:11.663Z,9.20
2022-09-16T02:05:24.701Z,9.10
2022-09-16T02:10:35.621Z,8.90
2022-09-16T02:15:42.531Z,8.40
2022-09-16T02:20:48.029Z,8.80
2022-09-16T02:25:54.673Z,8.70
2022-09-16T02:31:02.055Z,9.10
2022-09-16T02:36:07.939Z,8.80
2022-09-16T02:41:14.902Z,9.50
2022-09-16T02:46:33.455Z,8.70
2022-09-16T02:51:54.996Z,8.80
2022-09-16T02:56:58.071Z,9.20
2022-09-16T03:02:01.473Z,9.70
2022-09-16T03:07:11.198Z,8.50
2022-09-16T03:12:32.400Z,8.60
2022-09-16T03:17:56.712Z,7.80
2022-09-16T03:23:29.652Z,7.50
2022-09-16T03:28:41.435Z,7.30
2022-09-16T03:34:13.672Z,6.60
2022-09-16T03:39:17.014Z,7.50
2022-09-16T03:44:19.925Z,6.70
2022-09-16T03:49:22.708Z,6.10
2022-09-16T03:54:25.601Z,7.10
2022-09-16T03:59:29.466Z,7.30
2022-09-16T04:04:32.292Z,7.90
2022-09-16T04:09:37.403Z,7.70
2022-09-16T04:14:40.201Z,7.90
2022-09-16T04:19:43.054Z,7.90
2022-09-16T04:24:46.024Z,7.60
2022-09-16T04:29:48.877Z,8.00
2022-09-16T04:34:51.907Z,8.10
2022-09-16T04:39:55.879Z,7.10
2022-09-16T04:44:58.702Z,7.90
2022-09-16T04:50:01.705Z,9.30
2022-09-16T04:55:05.020Z,7.80
2022-09-16T05:00:08.773Z,9.00
2022-09-16T05:05:12.227Z,9.40
2022-09-16T05:10:15.166Z,8.70
2022-09-16T05:15:18.120Z,9.90
2022-09-16T05:20:21.465Z,10.80
2022-09-16T05:25:24.915Z,9.60
2022-09-16T05:30:27.948Z,9.60
2022-09-16T05:35:30.855Z,9.30
2022-09-16T05:40:33.704Z,9.40
2022-09-16T05:45:36.532Z,9.50
2022-09-16T05:50:39.337Z,8.30
2022-09-16T05:55:42.149Z,8.00
2022-09-16T06:00:46.408Z,7.10
2022-09-16T06:05:49.510Z,8.20
2022-09-16T06:10:52.478Z,7.20
2022-09-16T06:15:55.726Z,6.70
2022-09-16T06:21:04.262Z,7.00
2022-09-16T06:26:11.781Z,6.80
2022-09-16T06:31:17.383Z,6.00
2022-09-16T06:36:22.666Z,5.30
2022-09-16T06:46:29.999Z,5.20
2022-09-16T06:51:33.608Z,5.10
2022-09-16T06:56:37.946Z,5.10
2022-09-16T07:01:41.257Z,4.70
2022-09-16T07:12:09.248Z,4.60
2022-09-16T07:17:12.100Z,6.60
2022-09-16T07:22:15.020Z,4.10
2022-09-16T07:27:17.982Z,4.70
2022-09-16T07:32:21.398Z,4.10
2022-09-16T07:37:24.305Z,4.40
2022-09-16T07:42:29.530Z,4.10
2022-09-16T07:47:32.554Z,3.80
2022-09-16T07:52:35.543Z,3.40
2022-09-16T07:57:38.542Z,3.60
2022-09-16T08:02:41.779Z,3.40
2022-09-16T08:07:44.785Z,3.90
2022-09-16T08:12:48.387Z,3.60
2022-09-16T08:17:51.461Z,2.70
2022-09-16T08:22:57.901Z,2.90
2022-09-16T08:28:01.620Z,4.50
2022-09-16T08:33:04.869Z,2.80
2022-09-16T08:38:07.800Z,3.40
2022-09-16T08:43:29.563Z,2.90
2022-09-16T08:48:48.877Z,3.20
2022-09-16T08:54:01.983Z,3.50
2022-09-16T08:59:11.999Z,2.80
2022-09-16T09:04:15.723Z,2.90
2022-09-16T09:09:37.370Z,3.10
2022-09-16T09:15:02.184Z,3.10
2022-09-16T09:20:22.752Z,2.80
2022-09-16T09:25:36.859Z,2.60
2022-09-16T09:30:44.843Z,3.20
2022-09-16T09:36:07.305Z,3.10
2022-09-16T09:41:38.925Z,2.60
2022-09-16T09:46:48.405Z,2.80
2022-09-16T09:52:08.131Z,2.60
2022-09-16T09:57:47.203Z,2.70
2022-09-16T10:02:50.389Z,2.80
2022-09-16T10:07:58.861Z,2.70
2022-09-16T10:13:13.129Z,3.00
2022-09-16T10:18:26.002Z,3.30
2022-09-16T10:23:30.184Z,2.40
2022-09-16T10:28:33.609Z,2.30
2022-09-16T10:33:45.917Z,2.00
2022-09-16T10:39:03.864Z,2.00
2022-09-16T10:44:26.677Z,1.90
2022-09-16T10:49:38.217Z,1.80
2022-09-16T10:54:41.201Z,2.80
2022-09-16T10:59:44.155Z,1.60
2022-09-16T11:04:47.016Z,1.60
2022-09-16T11:10:16.726Z,1.80
2022-09-16T11:15:29.803Z,1.80
2022-09-16T11:20:44.415Z,1.70
2022-09-16T11:26:00.807Z,2.00
2022-09-16T11:31:27.896Z,1.80
2022-09-16T11:37:08.909Z,2.10
2022-09-16T11:42:26.569Z,16.40
2022-09-16T11:47:29.353Z,1.90
2022-09-16T11:52:45.300Z,1.70
2022-09-16T11:57:58.874Z,1.80
2022-09-16T12:03:10.842Z,1.60
2022-09-16T12:08:27.914Z,1.50
2022-09-16T12:13:43.283Z,1.80
2022-09-16T12:18:50.917Z,1.80
2022-09-16T12:24:01.302Z,1.70
2022-09-16T12:29:25.866Z,1.70
2022-09-16T12:34:41.919Z,1.50
2022-09-16T12:39:46.165Z,1.70
2022-09-16T12:45:08.154Z,1.30
2022-09-16T12:50:28.561Z,1.20
2022-09-16T12:55:56.827Z,1.20
2022-09-16T13:01:30.773Z,2.00
2022-09-16T13:06:39.273Z,0.90
2022-09-16T13:17:05.742Z,1.20
2022-09-16T13:22:20.099Z,1.00
2022-09-16T13:27:36.038Z,1.10
2022-09-16T13:32:46.209Z,1.50
2022-09-16T13:37:52.084Z,1.20
2022-09-16T13:43:14.316Z,1.90
2022-09-16T13:48:21.900Z,1.60
2022-09-16T13:53:29.259Z,3.60
2022-09-16T13:58:38.950Z,2.40
2022-09-16T14:03:51.365Z,2.20
2022-09-16T14:09:16.989Z,1.80
2022-09-16T14:19:52.732Z,13.00
2022-09-16T14:25:06.276Z,2.40
2022-09-16T14:30:18.563Z,2.70
2022-09-16T14:35:24.255Z,2.30
2022-09-16T14:40:29.403Z,2.00
2022-09-16T14:45:34.950Z,1.80
2022-09-16T14:55:48.884Z,2.30
2022-09-16T15:01:14.035Z,2.20
2022-09-16T15:06:22.764Z,3.30
2022-09-16T15:11:47.505Z,2.50
2022-09-16T15:16:58.186Z,2.00
2022-09-16T15:22:02.033Z,2.20
2022-09-16T15:27:05.470Z,3.60
2022-09-16T15:32:24.209Z,2.20
2022-09-16T15:37:32.966Z,2.30
2022-09-16T15:42:36.816Z,1.90
2022-09-16T15:47:54.047Z,2.00
2022-09-16T15:53:08.616Z,4.00
2022-09-16T15:58:33.614Z,1.80
2022-09-16T16:03:47.962Z,2.00
2022-09-16T16:08:52.719Z,2.10
2022-09-16T16:14:01.149Z,2.00
2022-09-16T16:19:06.772Z,2.00
2022-09-16T16:24:10.068Z,2.10
2022-09-16T16:29:12.921Z,2.20
2022-09-16T16:34:15.781Z,2.30
2022-09-16T16:39:18.747Z,2.20
2022-09-16T16:44:23.130Z,2.30
2022-09-16T16:49:26.229Z,2.20
2022-09-16T16:54:29.790Z,2.00
2022-09-16T16:59:33.066Z,2.20
2022-09-16T17:04:35.975Z,2.70
2022-09-16T17:09:39.327Z,2.70
2022-09-16T17:14:42.470Z,2.90
2022-09-16T17:19:45.370Z,3.80
2022-09-16T17:24:48.236Z,10.90
2022-09-16T17:29:51.101Z,3.20
2022-09-16T17:34:54.496Z,3.50
2022-09-16T17:39:57.482Z,3.60
2022-09-16T17:45:06.404Z,3.10
2022-09-16T17:50:10.066Z,3.50
2022-09-16T17:55:13.073Z,3.20
2022-09-16T18:00:16.383Z,3.50
2022-09-16T18:05:20.019Z,3.60
2022-09-16T18:10:26.256Z,3.90
2022-09-16T18:15:30.174Z,3.40
2022-09-16T18:20:33.840Z,4.50
2022-09-16T18:25:39.831Z,4.40
2022-09-16T18:30:44.281Z,4.20
2022-09-16T18:35:49.109Z,11.50
2022-09-16T18:40:52.794Z,4.70
2022-09-16T18:45:56.429Z,3.90
2022-09-16T18:50:59.538Z,4.80
2022-09-16T18:56:03.039Z,4.40
2022-09-16T19:01:17.452Z,4.90
2022-09-16T19:06:21.726Z,4.60
2022-09-16T19:11:28.700Z,4.60
2022-09-16T19:16:35.166Z,4.90
2022-09-16T19:21:38.607Z,5.00
2022-09-16T19:26:49.423Z,5.40
2022-09-16T19:31:53.054Z,5.00
2022-09-16T19:36:56.522Z,4.50
2022-09-16T19:42:03.747Z,4.70
2022-09-16T19:47:06.967Z,4.50
2022-09-16T19:52:09.922Z,5.60
2022-09-16T19:57:13.052Z,4.70
2022-09-16T20:02:16.155Z,4.40
2022-09-16T20:07:20.450Z,5.10
2022-09-16T20:12:23.298Z,4.30
2022-09-16T20:17:26.204Z,4.30
2022-09-16T20:22:29.066Z,4.10
2022-09-16T20:27:31.918Z,4.50
2022-09-16T20:32:34.825Z,4.10
2022-09-16T20:37:37.698Z,5.40
2022-09-16T20:42:40.583Z,5.20
2022-09-16T20:47:43.672Z,5.10
2022-09-16T20:52:48.915Z,5.10
2022-09-16T20:57:51.823Z,5.00
2022-09-16T21:02:55.742Z,5.20
2022-09-16T21:07:58.835Z,5.30
2022-09-16T21:13:01.657Z,6.00
2022-09-16T21:18:05.848Z,5.10
2022-09-16T21:23:08.790Z,5.70
2022-09-16T21:28:11.798Z,6.00
2022-09-16T21:33:14.691Z,5.80
2022-09-16T21:38:18.631Z,6.20
2022-09-16T21:43:22.216Z,5.60
2022-09-16T21:48:27.447Z,5.70
2022-09-16T21:53:32.013Z,5.60
2022-09-16T21:58:35.638Z,5.80
2022-09-16T22:03:39.925Z,5.80
2022-09-16T22:08:48.979Z,5.50
2022-09-16T22:13:54.173Z,5.20
2022-09-16T22:19:08.755Z,5.70
2022-09-16T22:24:12.713Z,5.60
2022-09-16T22:29:15.631Z,6.10
2022-09-16T22:34:18.595Z,6.10
2022-09-16T22:39:21.509Z,5.70
2022-09-16T22:44:24.456Z,5.70
2022-09-16T22:49:27.930Z,10.80
2022-09-16T22:54:31.223Z,5.90
2022-09-16T22:59:34.539Z,5.60
2022-09-16T23:04:37.974Z,6.10
2022-09-16T23:09:41.100Z,6.40
2022-09-16T23:14:44.837Z,6.10
2022-09-16T23:19:47.714Z,6.10
2022-09-16T23:24:50.566Z,6.10
2022-09-16T23:29:53.545Z,6.50
2022-09-16T23:34:56.351Z,6.70
2022-09-16T23:40:00.479Z,6.10
2022-09-16T23:45:04.429Z,6.40
2022-09-16T23:50:11.785Z,6.40
2022-09-16T23:55:14.929Z,7.00
